sensor_id;sensor_type;location;lat;lon;timestamp;pressure;altitude;pressure_sealevel;temperature;humidity
10093;BME280;5085;48.092;11.484;2022-12-29T00:01:15;95001.56;;;3.00;100.00
10093;BME280;5085;48.092;11.484;2022-12-29T00:03:41;95005.84;;;3.01;100.00
10093;BME280;5085;48.092;11.484;2022-12-29T00:06:07;95000.31;;;3.03;100.00
10093;BME280;5085;48.092;11.484;2022-12-29T00:08:33;95002.97;;;3.03;100.00
10093;BME280;5085;48.092;11.484;2022-12-29T00:11:06;94992.31;;;3.03;100.00
10093;BME280;5085;48.092;11.484;2022-12-29T00:13:33;94998.44;;;3.03;100.00
10093;BME280;5085;48.092;11.484;2022-12-29T00:16:17;94990.81;;;3.07;100.00
10093;BME280;5085;48.092;11.484;2022-12-29T00:18:43;94984.22;;;3.09;100.00
10093;BME280;5085;48.092;11.484;2022-12-29T00:21:13;94986.44;;;3.12;100.00
10093;BME280;5085;48.092;11.484;2022-12-29T00:23:59;94982.97;;;3.12;100.00
10093;BME280;5085;48.092;11.484;2022-12-29T00:26:43;94992.31;;;3.14;100.00
10093;BME280;5085;48.092;11.484;2022-12-29T00:29:28;94984.31;;;3.14;100.00
10093;BME280;5085;48.092;11.484;2022-12-29T00:32:12;94980.66;;;3.15;100.00
10093;BME280;5085;48.092;11.484;2022-12-29T00:34:57;94984.56;;;3.13;100.00
10093;BME280;5085;48.092;11.484;2022-12-29T00:37:37;94977.88;;;3.10;100.00
10093;BME280;5085;48.092;11.484;2022-12-29T00:40:23;94980.19;;;3.07;100.00
10093;BME280;5085;48.092;11.484;2022-12-29T00:43:07;94979.38;;;3.06;100.00
10093;BME280;5085;48.092;11.484;2022-12-29T00:45:52;94977.97;;;3.04;100.00
10093;BME280;5085;48.092;11.484;2022-12-29T00:48:18;94977.75;;;3.05;100.00
10093;BME280;5085;48.092;11.484;2022-12-29T00:51:02;94971.41;;;3.06;100.00
10093;BME280;5085;48.092;11.484;2022-12-29T00:53:28;94970.56;;;3.06;100.00
10093;BME280;5085;48.092;11.484;2022-12-29T00:55:54;94972.41;;;3.05;100.00
10093;BME280;5085;48.092;11.484;2022-12-29T00:58:20;94968.75;;;3.06;100.00
10093;BME280;5085;48.092;11.484;2022-12-29T01:00:47;94980.19;;;3.07;100.00
10093;BME280;5085;48.092;11.484;2022-12-29T01:03:13;94979.59;;;3.05;100.00
10093;BME280;5085;48.092;11.484;2022-12-29T01:05:39;94980.41;;;3.05;100.00
10093;BME280;5085;48.092;11.484;2022-12-29T01:08:05;94983.53;;;3.02;100.00
10093;BME280;5085;48.092;11.484;2022-12-29T01:10:31;94975.78;;;3.00;100.00
10093;BME280;5085;48.092;11.484;2022-12-29T01:12:58;94976.81;;;2.99;100.00
10093;BME280;5085;48.092;11.484;2022-12-29T01:15:24;94981.56;;;2.97;100.00
10093;BME280;5085;48.092;11.484;2022-12-29T01:17:50;94981.78;;;2.96;100.00
10093;BME280;5085;48.092;11.484;2022-12-29T01:20:16;94972.75;;;2.97;100.00
10093;BME280;5085;48.092;11.484;2022-12-29T01:22:42;94980.75;;;2.97;100.00
10093;BME280;5085;48.092;11.484;2022-12-29T01:25:09;94984.69;;;2.94;100.00
10093;BME280;5085;48.092;11.484;2022-12-29T01:27:37;94979.81;;;2.91;100.00
10093;BME280;5085;48.092;11.484;2022-12-29T01:30:04;94980.50;;;2.87;100.00
10093;BME280;5085;48.092;11.484;2022-12-29T01:32:31;94984.44;;;2.84;100.00
10093;BME280;5085;48.092;11.484;2022-12-29T01:34:58;94990.59;;;2.85;100.00
10093;BME280;5085;48.092;11.484;2022-12-29T01:37:24;94994.06;;;2.85;100.00
10093;BME280;5085;48.092;11.484;2022-12-29T01:39:50;94991.97;;;2.87;100.00
10093;BME280;5085;48.092;11.484;2022-12-29T01:42:18;94987.81;;;2.91;100.00
10093;BME280;5085;48.092;11.484;2022-12-29T01:44:57;94985.75;;;2.93;100.00
10093;BME280;5085;48.092;11.484;2022-12-29T01:47:36;94988.72;;;2.97;100.00
10093;BME280;5085;48.092;11.484;2022-12-29T01:50:18;94987.22;;;3.01;100.00
10093;BME280;5085;48.092;11.484;2022-12-29T01:52:52;94994.50;;;3.06;100.00
10093;BME280;5085;48.092;11.484;2022-12-29T01:55:21;94981.81;;;3.08;100.00
10093;BME280;5085;48.092;11.484;2022-12-29T01:57:49;94992.56;;;3.13;99.12
10093;BME280;5085;48.092;11.484;2022-12-29T02:00:17;94985.16;;;3.15;98.75
10093;BME280;5085;48.092;11.484;2022-12-29T02:02:55;94977.75;;;3.17;98.27
10093;BME280;5085;48.092;11.484;2022-12-29T02:05:50;94970.56;;;3.17;99.59
10093;BME280;5085;48.092;11.484;2022-12-29T02:08:20;94978.34;;;3.19;97.07
10093;BME280;5085;48.092;11.484;2022-12-29T02:10:48;94968.00;;;3.22;96.66
10093;BME280;5085;48.092;11.484;2022-12-29T02:13:16;94972.06;;;3.25;96.21
10093;BME280;5085;48.092;11.484;2022-12-29T02:19:23;94963.75;;;3.33;95.06
10093;BME280;5085;48.092;11.484;2022-12-29T02:25:12;94966.50;;;3.38;93.36
10093;BME280;5085;48.092;11.484;2022-12-29T02:33:30;94973.78;;;3.55;91.73
10093;BME280;5085;48.092;11.484;2022-12-29T02:36:28;94966.94;;;3.59;92.01
10093;BME280;5085;48.092;11.484;2022-12-29T02:39:10;94968.09;;;3.63;90.63
10093;BME280;5085;48.092;11.484;2022-12-29T02:41:50;94973.97;;;3.65;90.32
10093;BME280;5085;48.092;11.484;2022-12-29T02:49:54;94965.28;;;3.69;89.85
10093;BME280;5085;48.092;11.484;2022-12-29T02:52:27;94964.59;;;3.74;89.59
10093;BME280;5085;48.092;11.484;2022-12-29T02:54:56;94971.63;;;3.80;88.71
10093;BME280;5085;48.092;11.484;2022-12-29T02:59:51;94951.09;;;3.92;86.11
10093;BME280;5085;48.092;11.484;2022-12-29T03:02:30;94955.00;;;4.01;84.97
10093;BME280;5085;48.092;11.484;2022-12-29T03:08:00;94944.63;;;4.17;85.74
10093;BME280;5085;48.092;11.484;2022-12-29T03:10:52;94951.66;;;4.23;84.49
10093;BME280;5085;48.092;11.484;2022-12-29T03:13:39;94945.38;;;4.29;83.72
10093;BME280;5085;48.092;11.484;2022-12-29T03:16:45;94936.16;;;4.37;82.82
10093;BME280;5085;48.092;11.484;2022-12-29T03:19:18;94935.22;;;4.43;81.76
10093;BME280;5085;48.092;11.484;2022-12-29T03:21:55;94931.84;;;4.47;81.74
10093;BME280;5085;48.092;11.484;2022-12-29T03:24:48;94926.56;;;4.53;81.69
10093;BME280;5085;48.092;11.484;2022-12-29T03:27:42;94927.72;;;4.57;80.82
10093;BME280;5085;48.092;11.484;2022-12-29T03:30:10;94923.78;;;4.59;80.18
10093;BME280;5085;48.092;11.484;2022-12-29T03:32:46;94931.84;;;4.64;79.75
10093;BME280;5085;48.092;11.484;2022-12-29T03:35:16;94918.84;;;4.68;80.49
10093;BME280;5085;48.092;11.484;2022-12-29T03:40:23;94932.81;;;4.75;80.07
10093;BME280;5085;48.092;11.484;2022-12-29T03:42:50;94927.00;;;4.78;79.48
10093;BME280;5085;48.092;11.484;2022-12-29T03:45:19;94923.84;;;4.81;79.09
10093;BME280;5085;48.092;11.484;2022-12-29T03:47:45;94923.34;;;4.84;79.13
10093;BME280;5085;48.092;11.484;2022-12-29T03:50:12;94922.31;;;4.85;78.16
10093;BME280;5085;48.092;11.484;2022-12-29T03:52:41;94927.97;;;4.89;78.18
10093;BME280;5085;48.092;11.484;2022-12-29T03:55:07;94921.31;;;4.91;77.16
10093;BME280;5085;48.092;11.484;2022-12-29T03:57:33;94916.56;;;4.93;76.31
10093;BME280;5085;48.092;11.484;2022-12-29T04:00:05;94923.03;;;4.97;76.74
10093;BME280;5085;48.092;11.484;2022-12-29T04:02:41;94920.66;;;5.01;77.11
10093;BME280;5085;48.092;11.484;2022-12-29T04:05:10;94913.78;;;5.05;75.21
10093;BME280;5085;48.092;11.484;2022-12-29T04:07:37;94914.91;;;5.09;75.58
10093;BME280;5085;48.092;11.484;2022-12-29T04:10:04;94914.66;;;5.11;75.33
10093;BME280;5085;48.092;11.484;2022-12-29T04:12:32;94915.00;;;5.14;74.69
10093;BME280;5085;48.092;11.484;2022-12-29T04:14:59;94917.41;;;5.16;73.97
10093;BME280;5085;48.092;11.484;2022-12-29T04:17:25;94913.19;;;5.20;73.74
10093;BME280;5085;48.092;11.484;2022-12-29T04:19:52;94917.00;;;5.24;74.71
10093;BME280;5085;48.092;11.484;2022-12-29T04:22:38;94920.19;;;5.26;73.78
10093;BME280;5085;48.092;11.484;2022-12-29T04:25:05;94916.00;;;5.30;71.65
10093;BME280;5085;48.092;11.484;2022-12-29T04:27:32;94913.63;;;5.34;72.29
10093;BME280;5085;48.092;11.484;2022-12-29T04:30:19;94924.38;;;5.39;70.84
10093;BME280;5085;48.092;11.484;2022-12-29T04:32:55;94916.69;;;5.42;71.69
10093;BME280;5085;48.092;11.484;2022-12-29T04:35:21;94910.84;;;5.45;70.25
10093;BME280;5085;48.092;11.484;2022-12-29T04:37:48;94907.13;;;5.46;71.60
10093;BME280;5085;48.092;11.484;2022-12-29T04:40:14;94913.03;;;5.48;70.24
10093;BME280;5085;48.092;11.484;2022-12-29T04:42:40;94913.03;;;5.48;71.13
10093;BME280;5085;48.092;11.484;2022-12-29T04:45:07;94910.91;;;5.50;70.63
10093;BME280;5085;48.092;11.484;2022-12-29T04:47:42;94905.84;;;5.49;70.70
10093;BME280;5085;48.092;11.484;2022-12-29T04:50:26;94905.03;;;5.48;70.68
10093;BME280;5085;48.092;11.484;2022-12-29T04:53:22;94906.63;;;5.49;70.83
10093;BME280;5085;48.092;11.484;2022-12-29T04:55:50;94899.69;;;5.48;70.95
10093;BME280;5085;48.092;11.484;2022-12-29T04:58:17;94892.72;;;5.47;71.12
10093;BME280;5085;48.092;11.484;2022-12-29T05:00:43;94900.72;;;5.47;70.64
10093;BME280;5085;48.092;11.484;2022-12-29T05:03:10;94903.16;;;5.49;69.82
10093;BME280;5085;48.092;11.484;2022-12-29T05:05:39;94908.25;;;5.50;70.20
10093;BME280;5085;48.092;11.484;2022-12-29T05:08:05;94911.72;;;5.51;70.94
10093;BME280;5085;48.092;11.484;2022-12-29T05:10:31;94906.16;;;5.53;70.58
10093;BME280;5085;48.092;11.484;2022-12-29T05:13:01;94908.81;;;5.53;70.85
10093;BME280;5085;48.092;11.484;2022-12-29T05:15:27;94902.41;;;5.54;70.15
10093;BME280;5085;48.092;11.484;2022-12-29T05:17:53;94909.38;;;5.55;70.77
10093;BME280;5085;48.092;11.484;2022-12-29T05:20:20;94912.84;;;5.55;70.05
10093;BME280;5085;48.092;11.484;2022-12-29T05:22:46;94920.63;;;5.57;69.53
10093;BME280;5085;48.092;11.484;2022-12-29T05:25:12;94908.88;;;5.58;69.96
10093;BME280;5085;48.092;11.484;2022-12-29T05:27:51;94928.38;;;5.58;70.35
10093;BME280;5085;48.092;11.484;2022-12-29T05:30:24;94919.56;;;5.58;70.48
10093;BME280;5085;48.092;11.484;2022-12-29T05:32:50;94917.94;;;5.57;70.19
10093;BME280;5085;48.092;11.484;2022-12-29T05:35:17;94908.06;;;5.57;69.97
10093;BME280;5085;48.092;11.484;2022-12-29T05:37:43;94908.88;;;5.58;69.95
10093;BME280;5085;48.092;11.484;2022-12-29T05:40:09;94905.94;;;5.59;69.90
10093;BME280;5085;48.092;11.484;2022-12-29T05:42:36;94903.06;;;5.61;69.77
10093;BME280;5085;48.092;11.484;2022-12-29T05:45:17;94902.53;;;5.64;68.38
10093;BME280;5085;48.092;11.484;2022-12-29T05:47:54;94901.22;;;5.66;68.98
10093;BME280;5085;48.092;11.484;2022-12-29T05:50:35;94903.41;;;5.69;67.53
10093;BME280;5085;48.092;11.484;2022-12-29T05:53:14;94904.53;;;5.73;67.23
10093;BME280;5085;48.092;11.484;2022-12-29T05:55:42;94898.94;;;5.75;66.82
10093;BME280;5085;48.092;11.484;2022-12-29T05:58:09;94902.94;;;5.77;67.08
10093;BME280;5085;48.092;11.484;2022-12-29T06:00:36;94904.31;;;5.80;66.81
10093;BME280;5085;48.092;11.484;2022-12-29T06:03:03;94900.84;;;5.80;67.07
10093;BME280;5085;48.092;11.484;2022-12-29T06:05:29;94901.41;;;5.82;66.27
10093;BME280;5085;48.092;11.484;2022-12-29T06:07:55;94905.69;;;5.83;66.81
10093;BME280;5085;48.092;11.484;2022-12-29T06:10:22;94915.06;;;5.85;65.63
10093;BME280;5085;48.092;11.484;2022-12-29T06:12:56;94900.09;;;5.84;65.92
10093;BME280;5085;48.092;11.484;2022-12-29T06:15:22;94902.78;;;5.84;66.96
10093;BME280;5085;48.092;11.484;2022-12-29T06:17:50;94896.63;;;5.84;66.88
10093;BME280;5085;48.092;11.484;2022-12-29T06:20:17;94893.38;;;5.82;67.24
10093;BME280;5085;48.092;11.484;2022-12-29T06:22:43;94901.66;;;5.80;67.11
10093;BME280;5085;48.092;11.484;2022-12-29T06:25:09;94907.25;;;5.79;66.69
10093;BME280;5085;48.092;11.484;2022-12-29T06:27:35;94911.22;;;5.76;67.28
10093;BME280;5085;48.092;11.484;2022-12-29T06:30:01;94912.53;;;5.73;67.66
10093;BME280;5085;48.092;11.484;2022-12-29T06:32:28;94913.03;;;5.70;68.25
10093;BME280;5085;48.092;11.484;2022-12-29T06:34:59;94907.38;;;5.67;69.88
10093;BME280;5085;48.092;11.484;2022-12-29T06:37:25;94914.00;;;5.64;71.63
10093;BME280;5085;48.092;11.484;2022-12-29T06:39:52;94916.63;;;5.59;72.09
10093;BME280;5085;48.092;11.484;2022-12-29T06:42:18;94914.44;;;5.56;74.14
10093;BME280;5085;48.092;11.484;2022-12-29T06:44:50;94919.50;;;5.53;74.23
10093;BME280;5085;48.092;11.484;2022-12-29T06:47:18;94917.31;;;5.49;74.89
10093;BME280;5085;48.092;11.484;2022-12-29T06:49:44;94910.59;;;5.47;74.82
10093;BME280;5085;48.092;11.484;2022-12-29T06:52:10;94914.34;;;5.46;73.30
10093;BME280;5085;48.092;11.484;2022-12-29T06:54:36;94913.53;;;5.45;73.73
10093;BME280;5085;48.092;11.484;2022-12-29T06:57:02;94914.34;;;5.46;73.65
10093;BME280;5085;48.092;11.484;2022-12-29T06:59:28;94917.81;;;5.46;74.85
10093;BME280;5085;48.092;11.484;2022-12-29T07:01:54;94922.09;;;5.47;73.15
10093;BME280;5085;48.092;11.484;2022-12-29T07:04:20;94925.59;;;5.48;73.42
10093;BME280;5085;48.092;11.484;2022-12-29T07:06:46;94923.47;;;5.50;72.40
10093;BME280;5085;48.092;11.484;2022-12-29T07:09:12;94921.59;;;5.50;71.60
10093;BME280;5085;48.092;11.484;2022-12-29T07:11:38;94927.50;;;5.53;71.85
10093;BME280;5085;48.092;11.484;2022-12-29T07:14:04;94934.69;;;5.52;71.83
10093;BME280;5085;48.092;11.484;2022-12-29T07:16:31;94939.22;;;5.51;71.67
10093;BME280;5085;48.092;11.484;2022-12-29T07:18:57;94934.41;;;5.48;72.15
10093;BME280;5085;48.092;11.484;2022-12-29T07:21:25;94944.50;;;5.46;71.27
10093;BME280;5085;48.092;11.484;2022-12-29T07:23:51;94943.16;;;5.44;71.45
10093;BME280;5085;48.092;11.484;2022-12-29T07:26:17;94955.94;;;5.42;72.03
10093;BME280;5085;48.092;11.484;2022-12-29T07:28:44;94954.56;;;5.39;72.75
10093;BME280;5085;48.092;11.484;2022-12-29T07:31:20;94962.56;;;5.39;72.66
10093;BME280;5085;48.092;11.484;2022-12-29T07:33:47;94961.22;;;5.37;73.13
10093;BME280;5085;48.092;11.484;2022-12-29T07:36:14;94965.22;;;5.39;73.02
10093;BME280;5085;48.092;11.484;2022-12-29T07:38:41;94960.47;;;5.41;73.05
10093;BME280;5085;48.092;11.484;2022-12-29T07:41:07;94968.00;;;5.44;73.40
10093;BME280;5085;48.092;11.484;2022-12-29T07:43:34;94969.94;;;5.49;72.41
10093;BME280;5085;48.092;11.484;2022-12-29T07:46:18;94963.84;;;5.54;70.46
10093;BME280;5085;48.092;11.484;2022-12-29T07:48:44;94955.88;;;5.59;70.92
10093;BME280;5085;48.092;11.484;2022-12-29T07:51:10;94964.28;;;5.67;70.99
10093;BME280;5085;48.092;11.484;2022-12-29T07:53:36;94966.25;;;5.77;70.15
10093;BME280;5085;48.092;11.484;2022-12-29T07:56:03;94957.00;;;5.85;69.90
10093;BME280;5085;48.092;11.484;2022-12-29T07:58:29;94963.47;;;5.89;70.03
10093;BME280;5085;48.092;11.484;2022-12-29T08:00:55;94968.66;;;5.95;68.51
10093;BME280;5085;48.092;11.484;2022-12-29T08:03:22;94971.66;;;5.99;67.91
10093;BME280;5085;48.092;11.484;2022-12-29T08:05:48;94967.41;;;6.03;67.94
10093;BME280;5085;48.092;11.484;2022-12-29T08:08:15;94969.09;;;6.09;66.56
10093;BME280;5085;48.092;11.484;2022-12-29T08:10:41;94972.63;;;6.15;66.48
10093;BME280;5085;48.092;11.484;2022-12-29T08:13:07;94967.88;;;6.22;65.42
10093;BME280;5085;48.092;11.484;2022-12-29T08:15:33;94960.22;;;6.31;64.48
10093;BME280;5085;48.092;11.484;2022-12-29T08:17:59;94966.47;;;6.41;64.20
10093;BME280;5085;48.092;11.484;2022-12-29T08:20:25;94969.53;;;6.50;64.67
10093;BME280;5085;48.092;11.484;2022-12-29T08:22:51;94966.38;;;6.58;64.30
10093;BME280;5085;48.092;11.484;2022-12-29T08:25:17;94968.09;;;6.69;63.54
10093;BME280;5085;48.092;11.484;2022-12-29T08:27:43;94961.03;;;6.90;62.28
10093;BME280;5085;48.092;11.484;2022-12-29T08:30:09;94963.50;;;7.34;60.49
10093;BME280;5085;48.092;11.484;2022-12-29T08:32:35;94965.84;;;7.73;59.23
10093;BME280;5085;48.092;11.484;2022-12-29T08:35:01;94966.59;;;8.21;57.68
10093;BME280;5085;48.092;11.484;2022-12-29T08:37:27;94963.00;;;9.04;55.62
10093;BME280;5085;48.092;11.484;2022-12-29T08:39:53;94967.09;;;10.01;52.47
10093;BME280;5085;48.092;11.484;2022-12-29T08:42:19;94966.44;;;10.85;49.88
10093;BME280;5085;48.092;11.484;2022-12-29T08:44:45;94964.69;;;11.33;48.03
10093;BME280;5085;48.092;11.484;2022-12-29T08:47:11;94964.25;;;11.79;47.02
10093;BME280;5085;48.092;11.484;2022-12-29T08:49:37;94971.94;;;11.67;46.17
10093;BME280;5085;48.092;11.484;2022-12-29T08:52:03;94968.97;;;11.39;46.82
10093;BME280;5085;48.092;11.484;2022-12-29T08:54:30;94970.88;;;11.34;52.22
10093;BME280;5085;48.092;11.484;2022-12-29T08:56:55;94966.53;;;11.38;50.15
10093;BME280;5085;48.092;11.484;2022-12-29T08:59:27;94974.19;;;11.60;48.88
10093;BME280;5085;48.092;11.484;2022-12-29T09:01:53;94968.13;;;11.73;46.51
10093;BME280;5085;48.092;11.484;2022-12-29T09:04:19;94974.75;;;11.57;46.39
10093;BME280;5085;48.092;11.484;2022-12-29T09:06:45;94980.91;;;11.28;46.81
10093;BME280;5085;48.092;11.484;2022-12-29T09:09:11;94976.78;;;11.07;47.27
10093;BME280;5085;48.092;11.484;2022-12-29T09:11:38;94981.22;;;10.87;47.44
10093;BME280;5085;48.092;11.484;2022-12-29T09:14:04;94991.59;;;10.65;48.04
10093;BME280;5085;48.092;11.484;2022-12-29T09:16:30;94982.25;;;10.52;48.34
10093;BME280;5085;48.092;11.484;2022-12-29T09:18:56;94981.25;;;10.38;48.71
10093;BME280;5085;48.092;11.484;2022-12-29T09:21:22;94990.66;;;10.40;48.99
10093;BME280;5085;48.092;11.484;2022-12-29T09:23:48;94991.38;;;10.56;49.38
10093;BME280;5085;48.092;11.484;2022-12-29T09:26:14;94978.59;;;10.77;48.93
10093;BME280;5085;48.092;11.484;2022-12-29T09:28:40;94983.53;;;11.04;48.58
10093;BME280;5085;48.092;11.484;2022-12-29T09:31:06;94989.44;;;11.40;47.36
10093;BME280;5085;48.092;11.484;2022-12-29T09:33:32;94995.59;;;11.75;45.58
10093;BME280;5085;48.092;11.484;2022-12-29T09:36:02;94986.63;;;12.09;44.61
10093;BME280;5085;48.092;11.484;2022-12-29T09:38:28;94989.28;;;12.57;44.90
10093;BME280;5085;48.092;11.484;2022-12-29T09:41:00;94976.16;;;12.69;42.58
10093;BME280;5085;48.092;11.484;2022-12-29T09:46:27;94978.22;;;12.34;42.46
10093;BME280;5085;48.092;11.484;2022-12-29T09:49:15;94976.06;;;12.12;42.64
10093;BME280;5085;48.092;11.484;2022-12-29T09:51:48;94966.53;;;11.96;43.78
10093;BME280;5085;48.092;11.484;2022-12-29T09:57:25;94967.00;;;11.74;44.34
10093;BME280;5085;48.092;11.484;2022-12-29T10:00:17;94970.84;;;11.68;44.84
10093;BME280;5085;48.092;11.484;2022-12-29T10:02:42;94966.34;;;11.58;45.60
10093;BME280;5085;48.092;11.484;2022-12-29T10:05:21;94959.19;;;11.48;45.76
10093;BME280;5085;48.092;11.484;2022-12-29T10:07:58;94949.56;;;11.37;45.65
10093;BME280;5085;48.092;11.484;2022-12-29T10:10:56;94956.16;;;11.26;46.06
10093;BME280;5085;48.092;11.484;2022-12-29T10:13:43;94946.78;;;11.18;46.42
10093;BME280;5085;48.092;11.484;2022-12-29T10:16:20;94955.47;;;11.10;45.15
10093;BME280;5085;48.092;11.484;2022-12-29T10:19:33;94946.03;;;11.08;46.28
10093;BME280;5085;48.092;11.484;2022-12-29T10:24:39;94949.31;;;11.05;45.67
10093;BME280;5085;48.092;11.484;2022-12-29T10:27:13;94955.78;;;11.04;45.72
10093;BME280;5085;48.092;11.484;2022-12-29T10:29:48;94946.09;;;11.02;46.06
10093;BME280;5085;48.092;11.484;2022-12-29T10:32:30;94945.25;;;11.07;46.22
10093;BME280;5085;48.092;11.484;2022-12-29T10:35:03;94952.47;;;11.12;45.67
10093;BME280;5085;48.092;11.484;2022-12-29T10:37:38;94941.66;;;11.17;45.73
10093;BME280;5085;48.092;11.484;2022-12-29T10:40:18;94937.22;;;11.31;45.08
10093;BME280;5085;48.092;11.484;2022-12-29T10:42:52;94940.44;;;11.62;45.13
10093;BME280;5085;48.092;11.484;2022-12-29T10:45:18;94928.63;;;12.06;44.12
10093;BME280;5085;48.092;11.484;2022-12-29T10:50:20;94941.69;;;12.80;42.44
10093;BME280;5085;48.092;11.484;2022-12-29T10:52:47;94928.16;;;12.98;42.53
10093;BME280;5085;48.092;11.484;2022-12-29T10:55:20;94926.97;;;13.23;42.69
10093;BME280;5085;48.092;11.484;2022-12-29T10:57:47;94928.19;;;13.78;41.56
10093;BME280;5085;48.092;11.484;2022-12-29T11:00:18;94925.22;;;14.70;40.59
10093;BME280;5085;48.092;11.484;2022-12-29T11:07:57;94908.69;;;18.22;34.90
10093;BME280;5085;48.092;11.484;2022-12-29T11:13:01;94900.81;;;19.88;33.88
10093;BME280;5085;48.092;11.484;2022-12-29T11:15:38;94903.94;;;20.60;31.17
10093;BME280;5085;48.092;11.484;2022-12-29T11:18:28;94907.41;;;21.65;29.29
10093;BME280;5085;48.092;11.484;2022-12-29T11:20:59;94900.41;;;22.28;28.25
10093;BME280;5085;48.092;11.484;2022-12-29T11:23:33;94900.41;;;22.94;28.90
10093;BME280;5085;48.092;11.484;2022-12-29T11:28:37;94892.16;;;24.60;25.46
10093;BME280;5085;48.092;11.484;2022-12-29T11:31:04;94886.59;;;25.13;24.69
10093;BME280;5085;48.092;11.484;2022-12-29T11:33:32;94890.72;;;25.27;24.72
10093;BME280;5085;48.092;11.484;2022-12-29T11:36:04;94884.91;;;25.32;23.53
10093;BME280;5085;48.092;11.484;2022-12-29T11:38:36;94886.84;;;25.31;22.91
10093;BME280;5085;48.092;11.484;2022-12-29T11:41:05;94876.97;;;25.00;22.98
10093;BME280;5085;48.092;11.484;2022-12-29T11:43:41;94877.22;;;25.18;23.97
10093;BME280;5085;48.092;11.484;2022-12-29T11:46:18;94870.13;;;25.51;24.68
10093;BME280;5085;48.092;11.484;2022-12-29T11:48:46;94869.28;;;25.47;23.13
10093;BME280;5085;48.092;11.484;2022-12-29T11:51:21;94873.25;;;25.15;23.33
10093;BME280;5085;48.092;11.484;2022-12-29T11:53:51;94867.50;;;25.28;22.54
10093;BME280;5085;48.092;11.484;2022-12-29T11:56:21;94876.63;;;25.35;22.45
10093;BME280;5085;48.092;11.484;2022-12-29T11:58:49;94876.34;;;25.78;22.90
10093;BME280;5085;48.092;11.484;2022-12-29T12:03:51;94875.78;;;26.43;22.06
10093;BME280;5085;48.092;11.484;2022-12-29T12:06:19;94872.16;;;26.35;21.32
10093;BME280;5085;48.092;11.484;2022-12-29T12:09:21;94877.34;;;26.00;21.42
10093;BME280;5085;48.092;11.484;2022-12-29T12:11:51;94874.47;;;25.52;22.29
10093;BME280;5085;48.092;11.484;2022-12-29T12:14:21;94872.25;;;25.01;22.33
10093;BME280;5085;48.092;11.484;2022-12-29T12:17:14;94864.53;;;24.34;22.90
10093;BME280;5085;48.092;11.484;2022-12-29T12:20:02;94874.22;;;23.78;23.82
10093;BME280;5085;48.092;11.484;2022-12-29T12:22:51;94859.63;;;23.55;24.87
10093;BME280;5085;48.092;11.484;2022-12-29T12:25:23;94851.41;;;23.78;24.14
10093;BME280;5085;48.092;11.484;2022-12-29T12:28:13;94852.78;;;23.87;24.23
10093;BME280;5085;48.092;11.484;2022-12-29T12:30:46;94849.72;;;23.92;24.41
10093;BME280;5085;48.092;11.484;2022-12-29T12:33:33;94847.47;;;23.75;24.02
10093;BME280;5085;48.092;11.484;2022-12-29T12:41:53;94848.13;;;23.91;25.90
10093;BME280;5085;48.092;11.484;2022-12-29T12:44:28;94832.84;;;23.52;26.29
10093;BME280;5085;48.092;11.484;2022-12-29T12:47:24;94830.88;;;22.55;25.80
10093;BME280;5085;48.092;11.484;2022-12-29T12:50:16;94827.81;;;21.62;27.29
10093;BME280;5085;48.092;11.484;2022-12-29T12:57:42;94822.31;;;18.85;30.95
10093;BME280;5085;48.092;11.484;2022-12-29T13:00:13;94822.34;;;18.14;32.12
10093;BME280;5085;48.092;11.484;2022-12-29T13:03:11;94816.56;;;17.39;33.32
10093;BME280;5085;48.092;11.484;2022-12-29T13:08:48;94821.28;;;16.17;35.68
10093;BME280;5085;48.092;11.484;2022-12-29T13:13:54;94823.09;;;15.42;37.18
10093;BME280;5085;48.092;11.484;2022-12-29T13:19:30;94816.66;;;14.98;38.64
10093;BME280;5085;48.092;11.484;2022-12-29T13:22:12;94819.06;;;14.77;39.13
10093;BME280;5085;48.092;11.484;2022-12-29T13:27:42;94806.50;;;14.59;43.49
10093;BME280;5085;48.092;11.484;2022-12-29T13:30:17;94803.91;;;14.54;41.95
10093;BME280;5085;48.092;11.484;2022-12-29T13:36:05;94800.00;;;14.23;41.19
10093;BME280;5085;48.092;11.484;2022-12-29T13:38:36;94806.59;;;14.17;45.44
10093;BME280;5085;48.092;11.484;2022-12-29T13:41:18;94814.38;;;14.10;44.04
10093;BME280;5085;48.092;11.484;2022-12-29T13:43:46;94813.56;;;13.96;43.14
10093;BME280;5085;48.092;11.484;2022-12-29T13:46:21;94812.28;;;13.80;43.57
10093;BME280;5085;48.092;11.484;2022-12-29T13:49:01;94816.13;;;13.65;43.84
10093;BME280;5085;48.092;11.484;2022-12-29T13:51:28;94820.22;;;13.48;44.55
10093;BME280;5085;48.092;11.484;2022-12-29T13:56:40;94819.91;;;13.22;45.51
10093;BME280;5085;48.092;11.484;2022-12-29T13:59:21;94823.59;;;13.13;45.63
10093;BME280;5085;48.092;11.484;2022-12-29T14:01:55;94822.63;;;13.04;45.37
10093;BME280;5085;48.092;11.484;2022-12-29T14:04:26;94815.81;;;12.92;45.49
10093;BME280;5085;48.092;11.484;2022-12-29T14:09:47;94819.19;;;12.70;46.13
10093;BME280;5085;48.092;11.484;2022-12-29T14:12:32;94827.44;;;12.60;46.90
10093;BME280;5085;48.092;11.484;2022-12-29T14:17:43;94819.94;;;12.38;48.69
10093;BME280;5085;48.092;11.484;2022-12-29T14:20:20;94816.00;;;12.31;48.38
10093;BME280;5085;48.092;11.484;2022-12-29T14:25:54;94824.91;;;12.12;48.56
10093;BME280;5085;48.092;11.484;2022-12-29T14:28:31;94830.97;;;12.04;49.52
10093;BME280;5085;48.092;11.484;2022-12-29T14:30:58;94834.84;;;11.98;49.57
10093;BME280;5085;48.092;11.484;2022-12-29T14:33:27;94829.25;;;11.89;48.91
10093;BME280;5085;48.092;11.484;2022-12-29T14:35:55;94828.88;;;11.77;49.18
10093;BME280;5085;48.092;11.484;2022-12-29T14:38:26;94834.38;;;11.67;48.54
10093;BME280;5085;48.092;11.484;2022-12-29T14:41:16;94829.69;;;11.54;49.00
10093;BME280;5085;48.092;11.484;2022-12-29T14:43:56;94834.97;;;11.40;50.01
10093;BME280;5085;48.092;11.484;2022-12-29T14:46:23;94832.66;;;11.28;50.41
10093;BME280;5085;48.092;11.484;2022-12-29T14:48:55;94826.59;;;11.17;50.71
10093;BME280;5085;48.092;11.484;2022-12-29T14:51:30;94831.84;;;11.04;50.73
10093;BME280;5085;48.092;11.484;2022-12-29T14:53:57;94836.53;;;10.93;50.68
10093;BME280;5085;48.092;11.484;2022-12-29T14:56:26;94835.81;;;10.82;50.69